Time;durP1;ratioP1;P1;durP2;ratioP2;P2;SDS_P1;SDS_P2;PMS_P1;PMS_P2;Temp;Humidity;BMP_temperature;BMP_pressure;BME280_temperature;BME280_humidity;BME280_pressure;Samples;Min_cycle;Max_cycle;Signal;HPM_P1;HPM_P2
2022/11/22 00:02:43;;;;;;;56.13;16.03;;;;;;;-0.32;100.00;99297.88;6047290;28;20040;-66
2022/11/22 00:05:38;;;;;;;65.32;15.82;;;;;;;-0.40;100.00;99282.81;6047762;28;20057;-66
2022/11/22 00:08:33;;;;;;;61.53;17.87;;;;;;;-0.30;100.00;99286.41;6047406;28;20021;-66
2022/11/22 00:11:29;;;;;;;55.53;14.77;;;;;;;-0.31;100.00;99279.53;6047220;28;20271;-66
2022/11/22 00:14:25;;;;;;;63.00;15.63;;;;;;;-0.28;100.00;99271.50;6047040;28;20022;-66
2022/11/22 00:17:20;;;;;;;69.18;20.00;;;;;;;-0.34;100.00;99258.09;6047279;28;20030;-67
2022/11/22 00:20:16;;;;;;;57.57;17.27;;;;;;;-0.27;100.00;99270.53;6046570;28;20037;-66
2022/11/22 00:23:12;;;;;;;52.33;15.20;;;;;;;-0.33;100.00;99259.78;6044050;28;20025;-67
2022/11/22 00:26:10;;;;;;;55.10;14.80;;;;;;;-0.32;100.00;99257.03;6045448;28;20030;-66
2022/11/22 00:29:06;;;;;;;65.10;17.65;;;;;;;-0.34;100.00;99258.94;6046549;28;20073;-66
2022/11/22 00:32:01;;;;;;;37.80;10.27;;;;;;;-0.28;100.00;99258.50;6046744;28;20470;-66
2022/11/22 00:34:57;;;;;;;56.17;16.93;;;;;;;-0.30;100.00;99260.34;6046954;28;20033;-66
2022/11/22 00:37:52;;;;;;;55.13;12.73;;;;;;;-0.31;100.00;99250.06;6047019;28;20652;-67
2022/11/22 00:40:47;;;;;;;48.47;15.65;;;;;;;-0.36;100.00;99245.22;6043838;28;20059;-66
2022/11/22 00:43:43;;;;;;;62.33;17.50;;;;;;;-0.36;100.00;99258.22;6046631;28;20033;-66
2022/11/22 00:46:38;;;;;;;57.53;17.80;;;;;;;-0.40;100.00;99251.56;6046517;28;20101;-66
2022/11/22 00:49:33;;;;;;;60.90;19.03;;;;;;;-0.31;100.00;99258.72;6046606;28;20366;-67
2022/11/22 00:52:29;;;;;;;46.28;15.90;;;;;;;-0.41;100.00;99241.28;6046341;28;20049;-66
2022/11/22 00:55:24;;;;;;;45.83;12.80;;;;;;;-0.38;100.00;99249.69;6046726;28;20049;-66
2022/11/22 00:58:20;;;;;;;65.45;15.82;;;;;;;-0.38;100.00;99241.88;6045244;28;20442;-66
2022/11/22 01:01:15;;;;;;;44.37;9.90;;;;;;;-0.28;100.00;99242.88;6045828;28;20022;-66
2022/11/22 01:04:10;;;;;;;40.47;13.55;;;;;;;-0.27;100.00;99254.91;6045990;28;20026;-66
2022/11/22 01:07:06;;;;;;;67.50;18.33;;;;;;;-0.35;100.00;99233.00;6046538;28;20030;-66
2022/11/22 01:10:01;;;;;;;50.77;12.67;;;;;;;-0.31;100.00;99240.50;6046320;28;20049;-67
2022/11/22 01:12:57;;;;;;;38.17;12.25;;;;;;;-0.29;100.00;99225.56;6045920;28;20045;-66
2022/11/22 01:15:53;;;;;;;52.30;13.65;;;;;;;-0.23;100.00;99227.72;6046001;28;20038;-66
2022/11/22 01:18:48;;;;;;;70.50;20.83;;;;;;;-0.33;100.00;99203.31;6045612;28;20065;-66
2022/11/22 01:21:44;;;;;;;61.77;14.83;;;;;;;-0.24;100.00;99214.81;6045075;28;20044;-66
2022/11/22 01:24:39;;;;;;;55.25;16.77;;;;;;;-0.25;100.00;99219.22;6046096;28;20045;-67
2022/11/22 01:27:34;;;;;;;68.93;20.27;;;;;;;-0.25;100.00;99207.94;6045196;28;20033;-67
2022/11/22 01:30:29;;;;;;;53.30;16.60;;;;;;;-0.31;100.00;99205.81;6044099;28;20022;-67
2022/11/22 01:33:27;;;;;;;56.77;15.93;;;;;;;-0.30;100.00;99203.06;6031506;28;20072;-67
2022/11/22 01:36:22;;;;;;;69.05;22.20;;;;;;;-0.25;100.00;99210.56;6045407;28;20088;-67
2022/11/22 01:39:18;;;;;;;68.10;18.10;;;;;;;-0.35;100.00;99184.34;6045744;28;20085;-66
2022/11/22 01:42:13;;;;;;;57.03;18.83;;;;;;;-0.27;100.00;99197.63;6044863;28;20034;-66
2022/11/22 01:45:33;;;;;;;52.85;14.32;;;;;;;-0.24;100.00;99207.00;6045947;28;20432;-67
2022/11/22 01:48:52;;;;;;;49.90;19.13;;;;;;;-0.33;100.00;99177.28;6045526;28;20097;-66
2022/11/22 01:51:50;;;;;;;39.42;12.13;;;;;;;-0.31;100.00;99169.34;6044692;28;20048;-66
2022/11/22 01:54:56;;;;;;;66.35;19.48;;;;;;;-0.30;100.00;99171.81;6044611;28;20034;-66
2022/11/22 01:57:51;;;;;;;47.83;14.52;;;;;;;-0.20;100.00;99175.41;6036237;28;20041;-67
2022/11/22 02:00:48;;;;;;;54.38;16.08;;;;;;;-0.23;100.00;99161.78;6045185;28;20034;-67
2022/11/22 02:03:45;;;;;;;55.97;16.45;;;;;;;-0.15;100.00;99175.88;6044469;28;20041;-67
2022/11/22 02:06:50;;;;;;;45.80;13.75;;;;;;;-0.14;100.00;99161.94;6045773;28;20609;-67
2022/11/22 02:09:46;;;;;;;41.22;14.07;;;;;;;-0.09;100.00;99157.19;6046752;28;20034;-67
2022/11/22 02:12:42;;;;;;;52.67;17.33;;;;;;;-0.16;100.00;99144.72;6050319;28;20122;-67
2022/11/22 02:15:37;;;;;;;52.40;14.02;;;;;;;-0.16;100.00;99152.53;6050274;28;20157;-67
2022/11/22 02:18:34;;;;;;;48.87;14.03;;;;;;;-0.20;100.00;99151.97;6050681;28;20072;-67
2022/11/22 02:21:30;;;;;;;37.15;12.50;;;;;;;-0.18;100.00;99154.44;6048137;28;20292;-67
2022/11/22 02:24:30;;;;;;;51.28;14.90;;;;;;;-0.22;100.00;99142.63;6049243;28;20113;-67
2022/11/22 02:27:26;;;;;;;47.78;14.07;;;;;;;-0.15;100.00;99165.47;6049150;28;20030;-67
2022/11/22 02:30:22;;;;;;;33.27;12.07;;;;;;;-0.16;100.00;99148.16;6048475;28;20425;-67
2022/11/22 02:33:17;;;;;;;48.08;14.70;;;;;;;-0.23;100.00;99144.38;6050325;28;20272;-67
2022/11/22 02:36:13;;;;;;;39.47;13.40;;;;;;;-0.14;100.00;99156.72;6049675;28;20173;-67
2022/11/22 02:39:11;;;;;;;30.90;10.87;;;;;;;-0.19;100.00;99142.38;6049696;28;20076;-67
2022/11/22 02:42:07;;;;;;;45.92;14.93;;;;;;;-0.18;100.00;99154.44;6048251;28;20428;-67
2022/11/22 02:45:02;;;;;;;33.70;12.17;;;;;;;-0.17;100.00;99141.31;6050058;28;20030;-67
2022/11/22 02:48:09;;;;;;;38.45;11.73;;;;;;;-0.21;100.00;99126.88;6049885;28;20803;-67
2022/11/22 02:51:04;;;;;;;51.83;15.57;;;;;;;-0.20;100.00;99131.13;6048851;28;20477;-67
2022/11/22 02:53:59;;;;;;;38.30;12.60;;;;;;;-0.15;100.00;99144.63;6050046;28;20034;-67
2022/11/22 02:56:55;;;;;;;44.27;14.67;;;;;;;-0.11;100.00;99148.63;6049619;28;20049;-67
2022/11/22 02:59:50;;;;;;;53.40;15.20;;;;;;;-0.13;100.00;99147.94;6049878;28;20032;-67
2022/11/22 03:02:45;;;;;;;37.30;11.80;;;;;;;-0.08;100.00;99139.75;6043158;28;20048;-67
2022/11/22 03:05:41;;;;;;;39.10;11.27;;;;;;;-0.11;100.00;99124.41;6049120;28;20040;-67
2022/11/22 03:08:36;;;;;;;55.22;14.60;;;;;;;-0.09;100.00;99123.34;6049545;28;20038;-67
2022/11/22 03:11:31;;;;;;;49.07;16.93;;;;;;;-0.01;100.00;99135.75;6048988;28;20041;-67
2022/11/22 03:14:27;;;;;;;44.80;15.83;;;;;;;0.09;100.00;99141.06;6049774;28;20085;-66
2022/11/22 03:17:22;;;;;;;45.67;15.97;;;;;;;0.14;100.00;99144.13;6049460;28;20176;-66
2022/11/22 03:20:17;;;;;;;40.37;14.67;;;;;;;0.13;100.00;99139.91;6048433;28;20030;-67
2022/11/22 03:23:13;;;;;;;39.83;13.27;;;;;;;0.13;100.00;99147.72;6048242;28;20452;-67
2022/11/22 03:26:09;;;;;;;51.33;16.47;;;;;;;0.12;100.00;99151.25;6047211;28;20062;-67
2022/11/22 03:29:05;;;;;;;44.20;11.52;;;;;;;0.22;100.00;99141.78;6049248;28;20478;-67
2022/11/22 03:32:00;;;;;;;38.10;12.32;;;;;;;0.13;100.00;99126.88;6048396;28;20113;-68
2022/11/22 03:34:55;;;;;;;38.20;13.37;;;;;;;0.22;100.00;99121.75;6049383;28;20030;-68
2022/11/22 03:37:50;;;;;;;44.93;14.90;;;;;;;0.11;100.00;99120.97;6049019;28;20044;-69
2022/11/22 03:40:46;;;;;;;49.57;15.50;;;;;;;0.17;100.00;99123.06;6048015;28;20083;-68
2022/11/22 03:43:42;;;;;;;41.73;11.27;;;;;;;0.07;100.00;99107.31;6048895;28;20224;-68
2022/11/22 03:46:38;;;;;;;53.30;17.63;;;;;;;0.13;100.00;99117.28;6047582;28;20307;-68
2022/11/22 03:49:33;;;;;;;51.77;16.80;;;;;;;0.07;100.00;99116.91;6048304;28;20441;-68
2022/11/22 03:52:29;;;;;;;49.22;17.83;;;;;;;0.07;100.00;99109.94;6047671;28;20552;-68
2022/11/22 03:55:24;;;;;;;48.53;13.80;;;;;;;0.12;100.00;99120.81;6048057;28;20033;-68
2022/11/22 03:58:20;;;;;;;56.40;16.00;;;;;;;0.11;100.00;99115.75;6048178;28;20030;-68
2022/11/22 04:01:15;;;;;;;63.70;21.87;;;;;;;0.05;100.00;99092.78;6047525;28;20057;-68
2022/11/22 04:04:10;;;;;;;39.90;12.80;;;;;;;0.02;100.00;99080.81;6048335;28;20034;-68
2022/11/22 04:07:06;;;;;;;45.27;14.27;;;;;;;0.04;100.00;99091.09;6047746;28;20385;-68
2022/11/22 04:10:01;;;;;;;55.10;16.13;;;;;;;0.04;100.00;99085.88;6047681;28;20345;-68
2022/11/22 04:12:57;;;;;;;48.70;16.52;;;;;;;0.11;100.00;99106.13;6046557;28;20048;-68
2022/11/22 04:15:54;;;;;;;50.70;18.55;;;;;;;0.07;100.00;99096.06;6048041;28;20121;-68
2022/11/22 04:18:49;;;;;;;39.67;12.48;;;;;;;0.09;100.00;99081.13;6047403;28;20056;-68
2022/11/22 04:21:45;;;;;;;54.90;18.90;;;;;;;0.13;100.00;99099.03;6047359;28;20053;-68
2022/11/22 04:27:55;;;;;;;57.05;19.23;;;;;;;0.09;100.00;99088.97;6047163;28;20397;-70
2022/11/22 04:34:04;;;;;;;48.38;15.05;;;;;;;0.05;100.00;99096.22;6047402;28;20385;-68
2022/11/22 04:37:00;;;;;;;54.50;15.83;;;;;;;0.15;100.00;99107.56;6047040;28;20033;-68
2022/11/22 04:39:55;;;;;;;38.33;11.57;;;;;;;0.15;100.00;99091.94;6047655;28;20057;-68
2022/11/22 04:46:04;;;;;;;65.03;19.63;;;;;;;0.11;100.00;99084.47;6046928;28;20026;-68
2022/11/22 04:49:00;;;;;;;59.93;19.63;;;;;;;0.17;100.00;99097.00;6047681;28;20034;-68
2022/11/22 04:55:09;;;;;;;43.67;14.35;;;;;;;0.26;100.00;99109.31;6047065;28;20555;-68
2022/11/22 04:58:04;;;;;;;56.87;15.30;;;;;;;0.28;100.00;99110.03;6046935;28;20029;-68
2022/11/22 05:00:59;;;;;;;38.53;13.73;;;;;;;0.21;100.00;99103.66;6046150;28;20038;-68
2022/11/22 05:03:55;;;;;;;52.17;15.90;;;;;;;0.24;100.00;99114.66;6046697;28;20049;-68
2022/11/22 05:06:51;;;;;;;49.73;17.53;;;;;;;0.17;100.00;99104.81;6046422;28;20057;-68
2022/11/22 05:09:46;;;;;;;53.85;17.90;;;;;;;0.30;100.00;99126.38;6047125;28;20080;-68
2022/11/22 05:12:42;;;;;;;46.33;14.80;;;;;;;0.30;100.00;99126.38;6046423;28;20479;-69
2022/11/22 05:15:37;;;;;;;66.45;22.92;;;;;;;0.22;100.00;99116.53;6046816;28;20040;-69
2022/11/22 05:18:33;;;;;;;47.17;14.73;;;;;;;0.23;100.00;99113.00;6046515;28;20084;-69
2022/11/22 05:21:28;;;;;;;53.45;17.52;;;;;;;0.32;100.00;99121.88;6045946;28;20037;-69
2022/11/22 05:24:24;;;;;;;40.33;14.20;;;;;;;0.24;100.00;99114.66;6046365;28;20466;-69
2022/11/22 05:27:19;;;;;;;66.13;19.90;;;;;;;0.25;100.00;99120.69;6034484;28;20046;-69
2022/11/22 05:30:14;;;;;;;51.20;16.57;;;;;;;0.31;100.00;99128.03;6045485;28;20036;-70
2022/11/22 05:33:10;;;;;;;42.70;15.82;;;;;;;0.33;100.00;99128.72;6045567;28;20052;-69
2022/11/22 05:36:07;;;;;;;63.90;18.23;;;;;;;0.24;100.00;99121.66;6047056;28;20069;-69
2022/11/22 05:39:02;;;;;;;37.28;13.57;;;;;;;0.27;100.00;99124.03;6049333;28;20030;-69
2022/11/22 05:41:58;;;;;;;51.08;16.60;;;;;;;0.32;100.00;99127.09;6045583;28;20416;-68
2022/11/22 05:44:53;;;;;;;48.10;15.23;;;;;;;0.33;100.00;99134.78;6045897;28;20037;-69
2022/11/22 05:47:48;;;;;;;54.87;17.33;;;;;;;0.25;100.00;99120.69;6045840;28;20288;-68
2022/11/22 05:50:44;;;;;;;51.63;16.77;;;;;;;0.29;100.00;99132.53;6044935;28;20069;-68
2022/11/22 05:53:40;;;;;;;47.15;14.18;;;;;;;0.28;100.00;99129.09;6045830;28;20413;-68
2022/11/22 05:56:35;;;;;;;53.80;17.17;;;;;;;0.32;100.00;99133.13;6045333;28;20096;-68
2022/11/22 05:59:31;;;;;;;53.70;17.53;;;;;;;0.33;100.00;99141.75;6038699;28;20037;-68
2022/11/22 06:02:26;;;;;;;51.60;16.60;;;;;;;0.37;100.00;99140.59;6037879;28;20127;-69
2022/11/22 06:05:22;;;;;;;46.65;15.23;;;;;;;0.28;100.00;99131.69;6043986;28;20034;-69
2022/11/22 06:08:17;;;;;;;56.13;16.63;;;;;;;0.35;100.00;99143.31;6044392;28;20034;-68
2022/11/22 06:11:23;;;;;;;54.00;15.33;;;;;;;0.38;100.00;99165.72;6044140;28;20033;-68
2022/11/22 06:14:18;;;;;;;53.90;16.88;;;;;;;0.37;100.00;99161.44;6042824;28;20030;-68
2022/11/22 06:17:14;;;;;;;52.20;19.13;;;;;;;0.37;100.00;99145.78;6043214;28;20034;-68
2022/11/22 06:20:09;;;;;;;39.53;16.33;;;;;;;0.38;100.00;99150.06;6043730;28;20030;-68
2022/11/22 06:23:04;;;;;;;57.97;19.25;;;;;;;0.39;100.00;99151.72;6044385;28;20125;-68
2022/11/22 06:26:02;;;;;;;52.50;17.43;;;;;;;0.30;100.00;99136.81;6044314;28;20497;-68
2022/11/22 06:28:58;;;;;;;45.78;15.50;;;;;;;0.38;100.00;99158.69;6044016;28;20018;-68
2022/11/22 06:31:53;;;;;;;50.70;16.03;;;;;;;0.37;100.00;99162.28;6043547;28;20045;-69
2022/11/22 06:34:48;;;;;;;29.73;10.23;;;;;;;0.38;100.00;99163.91;6043878;28;20264;-68
2022/11/22 06:37:44;;;;;;;57.47;18.25;;;;;;;0.40;100.00;99167.25;6043634;28;20092;-68
2022/11/22 06:40:39;;;;;;;51.67;15.97;;;;;;;0.40;100.00;99166.41;6043015;28;20069;-68
2022/11/22 06:43:35;;;;;;;52.15;17.15;;;;;;;0.37;100.00;99161.44;6040224;28;20026;-68
2022/11/22 06:46:31;;;;;;;45.78;17.55;;;;;;;0.36;100.00;99170.19;6045221;28;20049;-68
2022/11/22 06:49:26;;;;;;;53.47;17.92;;;;;;;0.42;100.00;99175.78;6045026;28;20366;-68
2022/11/22 06:52:22;;;;;;;54.60;18.30;;;;;;;0.35;100.00;99161.56;6041380;28;20030;-68
2022/11/22 06:55:17;;;;;;;36.97;14.63;;;;;;;0.46;100.00;99176.38;6045476;28;20069;-69
2022/11/22 06:58:12;;;;;;;39.37;13.60;;;;;;;0.44;100.00;99184.28;6048830;28;20121;-69
2022/11/22 07:01:10;;;;;;;48.27;15.60;;;;;;;0.42;100.00;99180.16;6048719;28;20744;-69
2022/11/22 07:04:06;;;;;;;45.15;14.27;;;;;;;0.44;100.00;99189.50;6049364;28;20069;-69
2022/11/22 07:07:01;;;;;;;50.78;17.20;;;;;;;0.37;100.00;99177.06;6049480;28;20088;-68
2022/11/22 07:09:57;;;;;;;47.88;17.23;;;;;;;0.45;100.00;99179.91;6050142;28;20473;-69
2022/11/22 07:12:52;;;;;;;52.20;17.33;;;;;;;0.46;100.00;99184.19;6048564;28;20114;-69
2022/11/22 07:15:58;;;;;;;43.70;13.40;;;;;;;0.50;100.00;99182.97;6048914;28;20069;-69
2022/11/22 07:18:53;;;;;;;48.78;18.05;;;;;;;0.49;100.00;99186.56;6049075;28;20091;-69
2022/11/22 07:21:49;;;;;;;58.30;18.30;;;;;;;0.54;100.00;99184.41;6047397;28;20034;-69
2022/11/22 07:24:45;;;;;;;43.10;16.35;;;;;;;0.56;100.00;99187.72;6049345;28;20344;-69
2022/11/22 07:27:40;;;;;;;36.10;12.87;;;;;;;0.49;100.00;99176.13;6049038;28;20432;-69
2022/11/22 07:30:35;;;;;;;56.33;17.73;;;;;;;0.60;100.00;99200.38;6048707;28;20273;-70
2022/11/22 07:33:31;;;;;;;49.43;16.67;;;;;;;0.58;100.00;99207.50;6049051;28;20033;-69
2022/11/22 07:36:28;;;;;;;43.90;13.98;;;;;;;0.52;100.00;99207.16;6048482;28;20034;-69
2022/11/22 07:39:23;;;;;;;51.35;17.27;;;;;;;0.51;100.00;99200.28;6047870;28;20503;-69
2022/11/22 07:42:18;;;;;;;43.80;13.93;;;;;;;0.63;100.00;99214.97;6047705;28;20120;-69
2022/11/22 07:45:14;;;;;;;42.13;14.20;;;;;;;0.55;100.00;99201.69;6046216;28;20276;-70
2022/11/22 07:48:13;;;;;;;50.70;15.97;;;;;;;0.64;100.00;99206.19;6048688;28;20434;-70
2022/11/22 07:51:08;;;;;;;44.22;14.90;;;;;;;0.70;100.00;99202.28;6047641;28;20026;-69
2022/11/22 07:54:04;;;;;;;44.80;16.17;;;;;;;0.70;100.00;99213.56;6048400;28;20060;-69
2022/11/22 07:56:59;;;;;;;46.60;15.97;;;;;;;0.63;100.00;99204.53;6048579;28;20025;-69
2022/11/22 07:59:54;;;;;;;39.47;15.53;;;;;;;0.66;100.00;99216.50;6051501;28;20564;-69
2022/11/22 08:02:50;;;;;;;40.23;14.80;;;;;;;0.74;100.00;99222.78;6047164;28;20355;-69
2022/11/22 08:05:45;;;;;;;42.13;14.07;;;;;;;0.70;100.00;99220.53;6047915;28;20038;-69
2022/11/22 08:08:40;;;;;;;36.43;13.50;;;;;;;0.75;100.00;99234.88;6045580;28;20022;-69
2022/11/22 08:11:36;;;;;;;38.92;15.38;;;;;;;0.74;100.00;99225.38;6047108;28;20469;-69
2022/11/22 08:14:31;;;;;;;50.42;16.70;;;;;;;0.79;100.00;99215.41;6047774;28;20038;-70
2022/11/22 08:17:26;;;;;;;38.97;13.60;;;;;;;0.74;100.00;99208.91;6044474;28;20621;-69
2022/11/22 08:20:22;;;;;;;34.97;12.87;;;;;;;0.78;100.00;99216.38;6044005;28;20469;-69
2022/11/22 08:23:17;;;;;;;42.07;15.27;;;;;;;0.88;100.00;99234.72;6043688;28;20033;-69
2022/11/22 08:26:15;;;;;;;39.03;15.98;;;;;;;0.86;100.00;99241.84;6044421;28;20484;-69
2022/11/22 08:29:11;;;;;;;38.15;13.18;;;;;;;0.92;100.00;99259.66;6044904;28;20604;-69
2022/11/22 08:32:06;;;;;;;40.72;13.38;;;;;;;0.95;100.00;99262.81;6045211;28;20084;-69
2022/11/22 08:35:02;;;;;;;33.40;12.53;;;;;;;0.89;100.00;99252.06;6046982;28;20706;-69
2022/11/22 08:37:57;;;;;;;29.80;12.00;;;;;;;0.90;100.00;99257.13;6047275;28;20034;-69
2022/11/22 08:40:53;;;;;;;28.40;10.93;;;;;;;1.00;100.00;99265.09;6046715;28;20042;-69
2022/11/22 08:43:49;;;;;;;37.42;13.52;;;;;;;1.05;100.00;99271.59;6047714;28;20774;-69
2022/11/22 08:46:45;;;;;;;43.13;14.77;;;;;;;1.07;100.00;99264.47;6047094;28;20042;-69
2022/11/22 08:49:40;;;;;;;32.67;12.67;;;;;;;1.02;100.00;99264.00;6047595;28;20060;-69
2022/11/22 08:52:35;;;;;;;32.63;12.37;;;;;;;1.10;100.00;99264.22;6046022;28;20017;-69
2022/11/22 08:55:30;;;;;;;31.93;13.00;;;;;;;1.11;100.00;99252.81;6046721;28;20062;-69
2022/11/22 08:58:28;;;;;;;35.17;12.43;;;;;;;1.28;100.00;99269.75;6046434;28;20025;-69
2022/11/22 09:01:23;;;;;;;34.30;12.30;;;;;;;1.22;100.00;99266.81;6040593;28;20049;-69
2022/11/22 09:04:19;;;;;;;31.00;11.30;;;;;;;1.25;100.00;99277.81;6046807;28;20469;-69
2022/11/22 09:07:15;;;;;;;29.47;11.33;;;;;;;1.23;100.00;99271.91;6046541;28;20069;-69
2022/11/22 09:10:11;;;;;;;34.28;13.63;;;;;;;1.32;100.00;99281.59;6045624;28;20034;-69
2022/11/22 09:13:06;;;;;;;35.80;12.38;;;;;;;1.38;100.00;99282.91;6046745;28;20385;-69
2022/11/22 09:16:15;;;;;;;34.00;12.70;;;;;;;1.36;100.00;99282.19;6046245;28;20030;-69
2022/11/22 09:19:10;;;;;;;28.15;11.07;;;;;;;1.43;100.00;99291.19;6045486;28;20064;-69
2022/11/22 09:22:06;;;;;;;31.67;11.48;;;;;;;1.36;100.00;99287.44;6045379;28;20632;-69
2022/11/22 09:25:02;;;;;;;28.00;10.80;;;;;;;1.43;100.00;99306.84;6045737;28;20648;-69
2022/11/22 09:28:03;;;;;;;28.35;11.13;;;;;;;1.45;100.00;99289.28;6041339;28;20042;-69
2022/11/22 09:31:06;;;;;;;31.13;10.45;;;;;;;1.52;100.00;99306.13;6045317;28;20088;-69
2022/11/22 09:34:02;;;;;;;26.77;10.90;;;;;;;1.54;100.00;99288.53;6045676;28;20074;-69
2022/11/22 09:36:57;;;;;;;34.03;11.30;;;;;;;1.62;100.00;99314.88;6045703;28;20026;-69
2022/11/22 09:39:52;;;;;;;29.80;10.70;;;;;;;1.58;100.00;99308.22;6045987;28;20313;-69
2022/11/22 09:43:26;;;;;;;27.25;9.63;;;;;;;1.70;100.00;99325.53;6044777;28;20034;-69
2022/11/22 09:46:36;;;;;;;30.60;11.57;;;;;;;1.70;100.00;99323.75;6005646;28;20039;-70
2022/11/22 09:49:52;;;;;;;30.08;11.30;;;;;;;1.69;100.00;99323.84;6044553;28;20104;-69
2022/11/22 09:52:48;;;;;;;26.92;11.82;;;;;;;1.72;100.00;99315.78;6043432;28;20452;-69
2022/11/22 09:55:50;;;;;;;27.10;10.02;;;;;;;1.76;100.00;99311.97;6044283;28;20046;-70
2022/11/22 09:58:50;;;;;;;26.73;11.70;;;;;;;1.72;100.00;99295.72;6046101;28;20058;-69
2022/11/22 10:01:51;;;;;;;28.30;12.20;;;;;;;1.65;100.00;99280.66;6038137;28;20022;-69
2022/11/22 10:04:53;;;;;;;30.20;11.52;;;;;;;1.75;100.00;99299.84;6052509;28;20425;-69
2022/11/22 10:08:01;;;;;;;20.73;8.88;;;;;;;1.96;100.00;99312.97;6045209;28;20045;-69
2022/11/22 10:10:57;;;;;;;35.65;11.75;;;;;;;2.04;100.00;99321.81;6059861;28;20034;-69
2022/11/22 10:13:58;;;;;;;29.77;10.73;;;;;;;2.16;100.00;99325.19;6044171;28;20382;-70
2022/11/22 10:17:06;;;;;;;28.88;11.05;;;;;;;2.21;100.00;99309.94;6045390;28;20390;-70
2022/11/22 10:20:16;;;;;;;22.80;10.23;;;;;;;2.27;100.00;99325.13;6048727;28;20744;-69
2022/11/22 10:23:22;;;;;;;32.28;11.02;;;;;;;2.13;100.00;99315.81;6044988;28;20133;-69
2022/11/22 10:26:26;;;;;;;30.13;12.48;;;;;;;2.06;100.00;99304.22;6045430;28;20065;-69
2022/11/22 10:29:30;;;;;;;26.27;10.85;;;;;;;2.13;100.00;99305.38;6042449;28;20532;-69
2022/11/22 10:32:32;;;;;;;22.95;9.35;;;;;;;2.10;100.00;99300.38;6046885;28;20389;-69
2022/11/22 10:35:54;;;;;;;26.27;10.45;;;;;;;2.25;100.00;99304.34;6048833;28;20033;-69
2022/11/22 10:39:09;;;;;;;31.95;11.18;;;;;;;2.21;100.00;99313.41;6029809;28;20549;-69
2022/11/22 10:42:19;;;;;;;28.33;13.30;;;;;;;2.19;100.00;99294.41;6049302;28;20041;-69
2022/11/22 10:45:26;;;;;;;28.50;10.85;;;;;;;2.28;100.00;99283.16;6040942;28;20488;-69
2022/11/22 10:48:35;;;;;;;30.40;10.73;;;;;;;2.34;100.00;99303.56;6048957;28;20113;-69
2022/11/22 10:51:45;;;;;;;32.47;11.98;;;;;;;2.46;100.00;99300.88;6048929;28;20065;-69
2022/11/22 10:55:04;;;;;;;33.88;11.90;;;;;;;2.55;100.00;99295.72;6050278;28;20489;-69
2022/11/22 10:58:06;;;;;;;21.90;9.45;;;;;;;2.68;100.00;99292.88;6047492;28;20048;-69
2022/11/22 11:01:19;;;;;;;29.83;11.68;;;;;;;2.71;100.00;99274.28;6041340;28;20042;-69
2022/11/22 11:04:14;;;;;;;26.35;10.27;;;;;;;2.77;100.00;99266.72;6048607;28;20084;-69
2022/11/22 11:07:16;;;;;;;24.40;9.95;;;;;;;2.87;100.00;99262.38;6047536;28;20122;-69
2022/11/22 11:10:17;;;;;;;24.67;10.32;;;;;;;3.02;100.00;99273.28;6047045;28;20508;-69
2022/11/22 11:13:21;;;;;;;18.50;8.77;;;;;;;2.96;100.00;99255.50;6047583;28;20116;-69
2022/11/22 11:16:19;;;;;;;23.42;7.88;;;;;;;3.13;100.00;99254.84;6047997;28;20127;-70
2022/11/22 11:19:21;;;;;;;21.90;8.45;;;;;;;3.25;100.00;99261.63;6047465;28;20133;-69
2022/11/22 11:22:24;;;;;;;26.98;10.20;;;;;;;3.26;100.00;99259.84;6046860;28;20080;-69
2022/11/22 11:25:27;;;;;;;23.73;9.07;;;;;;;3.41;100.00;99264.53;6042521;28;20137;-70
2022/11/22 11:28:27;;;;;;;21.00;8.65;;;;;;;3.28;100.00;99248.25;6048742;28;20161;-69
2022/11/22 11:31:41;;;;;;;15.07;6.30;;;;;;;3.44;100.00;99263.44;6046339;28;20749;-69
2022/11/22 11:34:38;;;;;;;19.25;8.65;;;;;;;3.46;100.00;99258.88;6048351;28;20108;-70
2022/11/22 11:37:35;;;;;;;20.75;8.55;;;;;;;3.40;100.00;99252.41;6046911;28;20065;-70
2022/11/22 11:40:31;;;;;;;30.70;10.57;;;;;;;3.57;100.00;99264.00;6047844;28;20437;-69
2022/11/22 11:43:27;;;;;;;26.27;11.18;;;;;;;3.63;100.00;99252.13;6048053;28;20131;-69
2022/11/22 11:46:25;;;;;;;25.77;10.17;;;;;;;3.55;100.00;99253.66;6048161;28;20049;-69
2022/11/22 11:49:24;;;;;;;26.45;8.68;;;;;;;3.58;100.00;99250.78;6048129;28;20280;-69
2022/11/22 11:52:21;;;;;;;18.50;7.80;;;;;;;3.61;100.00;99250.47;6047152;28;20060;-69
2022/11/22 11:55:17;;;;;;;23.27;8.30;;;;;;;3.53;100.00;99237.22;6046680;28;20034;-69
2022/11/22 11:58:20;;;;;;;24.37;9.73;;;;;;;3.49;99.68;99246.34;6046238;28;20037;-69
2022/11/22 12:01:21;;;;;;;23.20;9.98;;;;;;;3.50;100.00;99258.50;6047164;28;20378;-69
2022/11/22 12:04:20;;;;;;;22.90;9.20;;;;;;;3.62;99.96;99243.44;6046940;28;20037;-68
2022/11/22 12:07:27;;;;;;;19.38;8.38;;;;;;;3.63;100.00;99258.22;6041988;28;20447;-69
2022/11/22 12:10:40;;;;;;;26.15;9.95;;;;;;;3.58;100.00;99269.13;6046847;28;20026;-68
2022/11/22 12:13:49;;;;;;;23.33;9.70;;;;;;;3.61;100.00;99278.50;6047587;28;20117;-69
2022/11/22 12:16:46;;;;;;;26.95;9.52;;;;;;;3.72;100.00;99262.63;6060763;28;20046;-70
2022/11/22 12:19:56;;;;;;;19.25;8.20;;;;;;;3.80;99.44;99273.25;6040671;28;20412;-69
2022/11/22 12:23:02;;;;;;;16.77;8.00;;;;;;;3.75;99.80;99261.53;6046241;28;20042;-68
2022/11/22 12:25:58;;;;;;;21.52;10.02;;;;;;;3.77;100.00;99276.16;6045812;28;20046;-70
2022/11/22 12:28:53;;;;;;;22.60;9.05;;;;;;;3.91;100.00;99283.59;6045359;28;20100;-69
2022/11/22 12:31:53;;;;;;;17.38;8.45;;;;;;;3.97;100.00;99269.06;6046119;28;20033;-68
2022/11/22 12:34:59;;;;;;;26.10;9.13;;;;;;;3.99;99.54;99286.34;6046133;28;20381;-69
2022/11/22 12:38:16;;;;;;;22.42;8.82;;;;;;;3.94;99.22;99283.28;6058919;28;20035;-68
2022/11/22 12:41:15;;;;;;;22.95;9.43;;;;;;;3.95;99.07;99278.88;6049640;28;20033;-68
2022/11/22 12:44:16;;;;;;;19.65;7.75;;;;;;;3.99;99.33;99269.78;6045520;28;20030;-67
2022/11/22 12:47:15;;;;;;;23.30;8.95;;;;;;;4.06;99.05;99281.34;6046247;28;20473;-68
2022/11/22 12:50:28;;;;;;;19.92;8.52;;;;;;;3.96;99.03;99280.53;6044778;28;20061;-67
2022/11/22 12:53:32;;;;;;;20.08;8.48;;;;;;;3.98;99.65;99262.88;6037353;28;20041;-68
2022/11/22 12:56:47;;;;;;;26.33;9.02;;;;;;;3.91;98.55;99267.03;6046413;28;20481;-68
2022/11/22 12:59:49;;;;;;;18.65;8.57;;;;;;;4.03;98.69;99258.84;6045160;28;20042;-69
2022/11/22 13:02:48;;;;;;;22.92;10.20;;;;;;;4.07;98.51;99268.13;6043889;28;20045;-68
2022/11/22 13:05:53;;;;;;;19.45;7.80;;;;;;;3.90;99.58;99250.47;6046215;28;20135;-69
2022/11/22 13:09:01;;;;;;;21.95;8.88;;;;;;;3.96;98.68;99275.31;6035823;28;20041;-70
2022/11/22 13:12:05;;;;;;;19.25;9.45;;;;;;;3.96;98.76;99275.31;6044864;28;20038;-68
2022/11/22 13:15:01;;;;;;;19.00;8.32;;;;;;;4.05;99.13;99274.47;6060726;28;20129;-69
2022/11/22 13:17:56;;;;;;;20.95;8.50;;;;;;;4.02;98.88;99264.25;6043470;28;20478;-68
2022/11/22 13:21:04;;;;;;;20.20;8.07;;;;;;;4.04;98.92;99278.06;6045732;28;20374;-68
2022/11/22 13:24:13;;;;;;;21.55;8.40;;;;;;;4.02;99.07;99277.38;6044987;28;20033;-69
2022/11/22 13:27:17;;;;;;;18.67;7.55;;;;;;;4.01;98.99;99284.41;6044775;28;20027;-68
2022/11/22 13:30:23;;;;;;;25.58;9.10;;;;;;;3.96;99.15;99256.94;6038828;28;20042;-68
2022/11/22 13:33:24;;;;;;;20.98;9.05;;;;;;;3.94;99.29;99262.31;6044136;28;20112;-68
2022/11/22 13:36:23;;;;;;;24.45;9.02;;;;;;;3.97;99.23;99283.00;6045404;28;20076;-68
2022/11/22 13:39:20;;;;;;;18.02;8.50;;;;;;;3.98;99.15;99268.94;6045026;28;20037;-68
2022/11/22 13:42:22;;;;;;;20.70;8.38;;;;;;;3.91;99.65;99248.69;6044057;28;20034;-69
2022/11/22 13:45:22;;;;;;;20.88;9.02;;;;;;;3.95;99.65;99260.53;6038732;28;20030;-68
2022/11/22 13:48:39;;;;;;;26.17;8.25;;;;;;;4.01;99.17;99273.09;6045692;28;20038;-68
2022/11/22 13:51:52;;;;;;;22.40;7.50;;;;;;;3.86;99.05;99258.75;6045538;28;20034;-69
2022/11/22 13:54:57;;;;;;;22.60;8.05;;;;;;;3.85;99.29;99257.94;6045537;28;20413;-68